Time;durP1;ratioP1;P1;durP2;ratioP2;P2;SDS_P1;SDS_P2;PMS_P1;PMS_P2;Temp;Humidity;BMP_temperature;BMP_pressure;BME280_temperature;BME280_humidity;BME280_pressure;Samples;Min_cycle;Max_cycle;Signal;HPM_P1;HPM_P2
2022/07/08 00:01:07;;;;;;;3.67;0.90;;;;;;;15.04;69.63;103153.34;5095349;28;20457;-78
2022/07/08 00:03:32;;;;;;;4.15;1.05;;;;;;;15.03;69.53;103154.28;5076244;28;20077;-78
2022/07/08 00:05:58;;;;;;;4.43;1.05;;;;;;;15.00;69.78;103156.97;5079723;28;20047;-78
2022/07/08 00:08:23;;;;;;;2.83;1.23;;;;;;;14.98;69.39;103153.50;5066017;28;20040;-78
2022/07/08 00:10:49;;;;;;;4.13;1.10;;;;;;;14.95;69.49;103146.53;5081435;28;20052;-78
2022/07/08 00:13:14;;;;;;;3.20;1.15;;;;;;;14.94;69.71;103157.97;5100979;28;20044;-78
2022/07/08 00:15:39;;;;;;;5.00;1.00;;;;;;;14.92;69.75;103157.16;5099042;28;20454;-78
2022/07/08 00:18:05;;;;;;;4.45;1.15;;;;;;;14.91;69.87;103157.19;5059427;28;20024;-78
2022/07/08 00:20:30;;;;;;;3.40;1.17;;;;;;;14.88;69.56;103151.97;5080856;28;20035;-78
2022/07/08 00:22:57;;;;;;;1.98;1.15;;;;;;;14.86;69.72;103165.22;5082709;28;20040;-78
2022/07/08 00:25:22;;;;;;;1.17;0.70;;;;;;;14.85;69.99;103157.34;5100817;28;20036;-78
2022/07/08 00:27:48;;;;;;;3.17;1.13;;;;;;;14.82;69.98;103158.25;5100398;28;20412;-78
2022/07/08 00:30:13;;;;;;;5.75;1.35;;;;;;;14.81;69.95;103153.88;5099432;28;20380;-78
2022/07/08 00:32:39;;;;;;;3.58;0.98;;;;;;;14.80;69.73;103156.56;5099925;28;20043;-78
2022/07/08 00:35:06;;;;;;;5.95;1.40;;;;;;;14.76;70.07;103151.34;5100354;28;20035;-78
2022/07/08 00:37:31;;;;;;;2.53;0.80;;;;;;;14.74;69.90;103153.16;5082573;28;20067;-78
2022/07/08 00:39:57;;;;;;;3.33;1.17;;;;;;;14.73;70.08;103161.09;5100197;28;20277;-77
2022/07/08 00:42:22;;;;;;;3.08;1.35;;;;;;;14.71;70.32;103152.34;5100670;28;20043;-77
2022/07/08 00:44:47;;;;;;;6.75;1.38;;;;;;;14.70;70.29;103166.44;5079419;28;20230;-77
2022/07/08 00:47:13;;;;;;;2.00;1.20;;;;;;;14.68;70.35;103161.19;5098195;28;20071;-77
2022/07/08 00:49:40;;;;;;;2.65;1.20;;;;;;;14.67;70.40;103158.59;5101012;28;20050;-76
2022/07/08 00:52:06;;;;;;;3.08;1.20;;;;;;;14.65;70.62;103161.25;5100228;28;20090;-76
2022/07/08 00:54:32;;;;;;;4.75;1.40;;;;;;;14.64;70.58;103153.38;5082020;28;20023;-77
2022/07/08 00:56:58;;;;;;;3.42;1.30;;;;;;;14.63;70.47;103159.56;5070819;28;20236;-77
2022/07/08 00:59:25;;;;;;;1.48;0.82;;;;;;;14.60;70.65;103155.19;5080625;28;20074;-76
2022/07/08 01:01:50;;;;;;;3.60;1.00;;;;;;;14.58;70.49;103152.59;5084994;28;20211;-77
2022/07/08 01:04:16;;;;;;;4.20;1.10;;;;;;;14.57;70.86;103152.59;5082193;28;20028;-77
2022/07/08 01:06:42;;;;;;;3.40;1.08;;;;;;;14.54;70.55;103145.63;5100105;28;20047;-77
2022/07/08 01:09:08;;;;;;;4.38;1.10;;;;;;;14.52;70.74;103149.19;5100185;28;20180;-77
2022/07/08 01:11:34;;;;;;;3.88;1.38;;;;;;;14.51;70.69;103155.34;5082248;28;20059;-77
2022/07/08 01:13:59;;;;;;;3.92;1.40;;;;;;;14.48;71.17;103151.03;5099596;28;20052;-78
2022/07/08 01:16:24;;;;;;;3.20;1.17;;;;;;;14.46;71.07;103154.56;5078339;28;20036;-77
2022/07/08 01:18:50;;;;;;;4.45;1.20;;;;;;;14.44;70.84;103153.75;5081625;28;20046;-77
2022/07/08 01:21:15;;;;;;;3.13;1.15;;;;;;;14.42;70.94;103153.75;5100074;28;20048;-77
2022/07/08 01:23:41;;;;;;;4.95;1.15;;;;;;;14.40;71.25;103153.78;5100331;28;20092;-77
2022/07/08 01:26:11;;;;;;;7.47;1.67;;;;;;;14.40;71.23;103156.44;5099494;28;20054;-77
2022/07/08 01:28:38;;;;;;;2.60;1.35;;;;;;;14.38;71.15;103147.69;5089531;28;20151;-77
2022/07/08 01:31:04;;;;;;;5.35;1.52;;;;;;;14.36;71.38;103146.84;5098891;28;20043;-77
2022/07/08 01:33:29;;;;;;;5.80;1.40;;;;;;;14.35;71.45;103152.16;5099200;28;20100;-77
2022/07/08 01:35:55;;;;;;;7.80;1.63;;;;;;;14.33;71.41;103162.72;5094604;28;20027;-77
2022/07/08 01:38:20;;;;;;;3.53;1.20;;;;;;;14.32;71.14;103163.63;5081011;28;20362;-77
2022/07/08 01:40:46;;;;;;;3.03;1.05;;;;;;;14.29;71.12;103161.06;5093298;28;20230;-77
2022/07/08 01:43:12;;;;;;;7.45;1.25;;;;;;;14.28;71.35;103153.16;5074219;28;20067;-77
2022/07/08 01:45:37;;;;;;;5.68;1.45;;;;;;;14.27;71.41;103154.09;5080924;28;20047;-77
2022/07/08 01:48:03;;;;;;;4.18;1.50;;;;;;;14.25;71.64;103154.09;5064139;28;20020;-77
2022/07/08 01:50:28;;;;;;;3.85;1.38;;;;;;;14.23;71.70;103152.41;5099162;28;20215;-77
2022/07/08 01:52:54;;;;;;;3.13;1.35;;;;;;;14.22;71.73;103159.44;5081091;28;20075;-77
2022/07/08 01:55:19;;;;;;;5.88;1.75;;;;;;;14.21;71.37;103149.81;5059335;28;20051;-77
2022/07/08 01:57:45;;;;;;;4.72;1.33;;;;;;;14.19;71.51;103148.97;5093646;28;20094;-77
2022/07/08 02:00:10;;;;;;;3.78;1.42;;;;;;;14.17;71.83;103141.09;5080704;28;20149;-77
2022/07/08 02:02:36;;;;;;;1.80;1.05;;;;;;;14.15;71.59;103136.72;5080626;28;20252;-77
2022/07/08 02:05:01;;;;;;;3.45;1.58;;;;;;;14.14;71.74;103142.91;5070503;28;20037;-77
2022/07/08 02:07:27;;;;;;;2.45;1.02;;;;;;;14.13;71.50;103141.16;5079992;28;20055;-77
2022/07/08 02:09:52;;;;;;;2.15;1.10;;;;;;;14.11;71.65;103145.59;5081211;28;20256;-77
2022/07/08 02:12:20;;;;;;;3.85;1.17;;;;;;;14.09;71.84;103150.88;5075324;28;20085;-77
2022/07/08 02:15:03;;;;;;;2.28;1.13;;;;;;;14.08;72.04;103149.16;5068059;28;20032;-77
2022/07/08 02:17:31;;;;;;;3.17;1.15;;;;;;;14.06;72.01;103148.34;5080134;28;20278;-77
2022/07/08 02:19:57;;;;;;;3.42;1.10;;;;;;;14.05;71.80;103151.00;5076942;28;20112;-77
2022/07/08 02:22:23;;;;;;;3.40;1.05;;;;;;;14.02;72.17;103150.16;5078523;28;20036;-77
2022/07/08 02:24:48;;;;;;;3.35;1.25;;;;;;;14.00;72.20;103149.28;5097178;28;20028;-77
2022/07/08 02:27:14;;;;;;;2.60;1.20;;;;;;;14.00;71.98;103144.03;5098225;28;20073;-77
2022/07/08 02:29:39;;;;;;;4.40;1.35;;;;;;;13.98;72.17;103150.22;5080229;28;20072;-77
2022/07/08 02:32:05;;;;;;;4.05;1.10;;;;;;;13.98;72.51;103142.31;5080126;28;20047;-77
2022/07/08 02:34:30;;;;;;;3.88;1.40;;;;;;;13.97;72.21;103136.19;5079870;28;20099;-77
2022/07/08 02:36:56;;;;;;;3.92;1.20;;;;;;;13.95;72.20;103138.00;5098292;28;20051;-77
2022/07/08 02:39:21;;;;;;;6.43;1.38;;;;;;;13.95;72.38;103143.25;5059920;28;20494;-76
2022/07/08 02:41:47;;;;;;;6.22;1.38;;;;;;;13.94;72.51;103136.25;5076849;28;20235;-77
2022/07/08 02:44:13;;;;;;;4.88;1.27;;;;;;;13.93;72.30;103141.53;5096422;28;20294;-74
2022/07/08 02:46:38;;;;;;;2.80;1.25;;;;;;;13.92;72.54;103137.19;5067435;28;20061;-74
2022/07/08 02:49:04;;;;;;;2.53;1.23;;;;;;;13.90;72.32;103136.31;5101965;28;20349;-74
2022/07/08 02:51:30;;;;;;;3.00;1.40;;;;;;;13.89;72.26;103132.81;5091951;28;20065;-74
2022/07/08 02:53:55;;;;;;;4.22;1.52;;;;;;;13.88;72.44;103131.09;5071640;28;20312;-74
2022/07/08 02:56:21;;;;;;;2.15;1.00;;;;;;;13.86;72.32;103127.63;5100889;28;20442;-74
2022/07/08 02:58:46;;;;;;;3.00;1.27;;;;;;;13.85;72.43;103128.50;5066594;28;20024;-74
2022/07/08 03:01:12;;;;;;;3.33;1.25;;;;;;;13.83;72.27;103125.91;5101932;28;20126;-74
2022/07/08 03:03:37;;;;;;;3.88;1.42;;;;;;;13.82;72.50;103125.91;5062901;28;20032;-74
2022/07/08 03:06:03;;;;;;;3.88;1.52;;;;;;;13.81;72.46;103127.69;5065766;28;20123;-74
2022/07/08 03:08:28;;;;;;;5.70;1.75;;;;;;;13.81;72.52;103134.72;5083438;28;20040;-76
2022/07/08 03:10:53;;;;;;;2.90;1.30;;;;;;;13.79;72.53;103136.53;5083772;28;20043;-74
2022/07/08 03:13:19;;;;;;;4.07;1.10;;;;;;;13.76;72.33;103134.81;5087838;28;20039;-74
2022/07/08 03:15:44;;;;;;;3.35;1.33;;;;;;;13.75;72.57;103133.09;5083145;28;20039;-74
2022/07/08 03:18:10;;;;;;;2.78;1.00;;;;;;;13.75;72.35;103134.81;5071941;28;20036;-74
2022/07/08 03:20:35;;;;;;;2.28;1.30;;;;;;;13.73;72.79;103132.22;5079605;28;20391;-74
2022/07/08 03:23:01;;;;;;;4.18;1.30;;;;;;;13.73;72.88;103128.72;5081392;28;20034;-74
2022/07/08 03:25:26;;;;;;;4.75;1.40;;;;;;;13.71;72.91;103119.97;5099893;28;20032;-74
2022/07/08 03:27:51;;;;;;;2.42;1.20;;;;;;;13.69;72.92;103121.78;5100547;28;20039;-75
2022/07/08 03:30:17;;;;;;;3.25;1.30;;;;;;;13.68;72.49;103117.38;5096434;28;20051;-74
2022/07/08 03:32:43;;;;;;;2.10;1.08;;;;;;;13.67;72.86;103120.94;5068325;28;20036;-74
2022/07/08 03:35:09;;;;;;;2.30;1.10;;;;;;;13.67;72.96;103134.09;5056780;28;20028;-75
2022/07/08 03:37:34;;;;;;;1.55;1.30;;;;;;;13.66;72.67;103132.34;5065323;28;20041;-74
2022/07/08 03:42:44;;;;;;;1.95;1.10;;;;;;;13.63;72.90;103139.41;5084828;28;20100;-74
2022/07/08 03:45:09;;;;;;;2.60;1.02;;;;;;;13.63;73.06;103149.09;5082086;28;20463;-74
2022/07/08 03:47:35;;;;;;;5.03;1.50;;;;;;;13.61;73.18;103141.22;5100345;28;20062;-74
2022/07/08 03:50:00;;;;;;;1.90;1.02;;;;;;;13.61;72.98;103145.63;5082095;28;20046;-74
2022/07/08 03:52:26;;;;;;;4.00;1.10;;;;;;;13.60;73.14;103134.19;5081917;28;20043;-74
2022/07/08 03:54:51;;;;;;;5.90;0.95;;;;;;;13.59;73.00;103136.88;5100598;28;20055;-74
2022/07/08 03:57:16;;;;;;;1.60;1.00;;;;;;;13.58;72.92;103135.97;5066482;28;20097;-74
2022/07/08 03:59:42;;;;;;;1.55;1.10;;;;;;;13.59;73.03;103143.00;5078655;28;20256;-74
2022/07/08 04:02:08;;;;;;;5.00;1.30;;;;;;;13.58;73.13;103138.63;5062646;28;20043;-74
2022/07/08 04:04:33;;;;;;;2.10;1.30;;;;;;;13.58;73.26;103143.88;5083545;28;20032;-74
2022/07/08 04:06:58;;;;;;;4.50;1.38;;;;;;;13.58;73.28;103140.38;5077061;28;20052;-74
2022/07/08 04:09:24;;;;;;;2.22;1.20;;;;;;;13.57;73.39;103136.91;5065723;28;20330;-74
2022/07/08 04:11:49;;;;;;;4.28;1.30;;;;;;;13.57;73.15;103136.91;5092784;28;20032;-74
2022/07/08 04:14:14;;;;;;;4.28;1.10;;;;;;;13.56;73.50;103135.13;5084766;28;20115;-74
2022/07/08 04:16:40;;;;;;;2.45;1.20;;;;;;;13.56;73.28;103134.28;5085378;28;20041;-74
2022/07/08 04:19:05;;;;;;;2.85;1.20;;;;;;;13.56;73.87;103145.66;5083934;28;20051;-74
2022/07/08 04:21:30;;;;;;;2.05;0.93;;;;;;;13.55;73.16;103141.31;5085383;28;20070;-74
2022/07/08 04:23:58;;;;;;;4.65;1.10;;;;;;;13.54;73.30;103139.56;5102759;28;20272;-74
2022/07/08 04:26:28;;;;;;;3.42;1.15;;;;;;;13.55;73.76;103146.59;5101948;28;20269;-74
2022/07/08 04:28:53;;;;;;;4.43;1.30;;;;;;;13.54;73.46;103147.47;5084927;28;20032;-74
2022/07/08 04:31:19;;;;;;;6.72;1.42;;;;;;;13.55;74.11;103143.94;5085129;28;20035;-74
2022/07/08 04:33:44;;;;;;;1.98;1.30;;;;;;;13.54;74.00;103152.72;5103228;28;20035;-74
2022/07/08 04:36:10;;;;;;;4.88;1.52;;;;;;;13.55;74.39;103151.84;5098045;28;20091;-74
2022/07/08 04:38:35;;;;;;;3.47;1.10;;;;;;;13.54;74.51;103142.19;5078935;28;20320;-74
2022/07/08 04:41:00;;;;;;;3.25;0.98;;;;;;;13.56;74.43;103153.56;5066585;28;20062;-74
2022/07/08 04:43:26;;;;;;;2.72;1.30;;;;;;;13.57;74.40;103157.97;5085466;28;20099;-74
2022/07/08 04:45:51;;;;;;;1.38;1.00;;;;;;;13.57;74.69;103154.44;5085285;28;20056;-74
2022/07/08 04:48:17;;;;;;;1.35;0.98;;;;;;;13.58;74.92;103158.81;5102979;28;20095;-74
2022/07/08 04:50:42;;;;;;;2.65;1.08;;;;;;;13.60;74.77;103172.81;5059757;28;20035;-74
2022/07/08 04:53:07;;;;;;;3.28;1.00;;;;;;;13.61;74.61;103177.22;5089448;28;20100;-74
2022/07/08 04:55:33;;;;;;;2.55;1.20;;;;;;;13.60;74.72;103170.19;5067858;28;20027;-74
2022/07/08 04:58:01;;;;;;;1.60;1.02;;;;;;;13.61;74.65;103182.47;5098040;28;20036;-74
2022/07/08 05:00:27;;;;;;;0.98;0.70;;;;;;;13.61;74.82;103185.09;5103113;28;20299;-74
2022/07/08 05:02:53;;;;;;;2.45;1.15;;;;;;;13.62;74.80;103192.97;5102811;28;20227;-73
2022/07/08 05:05:19;;;;;;;2.15;1.10;;;;;;;13.63;74.58;103185.94;5067930;28;20043;-74
2022/07/08 05:07:45;;;;;;;2.85;1.15;;;;;;;13.65;74.78;103188.56;5103399;28;20429;-74
2022/07/08 05:10:10;;;;;;;2.42;1.05;;;;;;;13.66;74.45;103190.28;5101156;28;20098;-74
2022/07/08 05:12:35;;;;;;;2.35;0.85;;;;;;;13.66;74.76;103192.91;5063935;28;20041;-74
2022/07/08 05:15:01;;;;;;;1.88;0.95;;;;;;;13.67;74.77;103200.78;5068250;28;20031;-74
2022/07/08 05:17:26;;;;;;;5.10;0.85;;;;;;;13.68;75.08;103205.19;5072221;28;20347;-74
2022/07/08 05:19:51;;;;;;;1.13;0.80;;;;;;;13.69;74.79;103198.13;5073620;28;20373;-74
2022/07/08 05:22:17;;;;;;;1.25;0.80;;;;;;;13.69;74.88;103203.41;5064938;28;20036;-74
2022/07/08 05:24:42;;;;;;;1.48;0.90;;;;;;;13.70;74.77;103192.84;5066373;28;20047;-74
2022/07/08 05:27:08;;;;;;;5.75;1.10;;;;;;;13.73;74.80;103198.03;5102464;28;20289;-74
2022/07/08 05:29:33;;;;;;;1.45;1.08;;;;;;;13.73;75.34;103195.41;5091607;28;20040;-73
2022/07/08 05:31:59;;;;;;;2.40;1.20;;;;;;;13.75;75.13;103196.28;5088370;28;20085;-73
2022/07/08 05:34:24;;;;;;;2.45;0.88;;;;;;;13.76;75.21;103199.78;5102731;28;20039;-74
2022/07/08 05:36:49;;;;;;;2.42;1.00;;;;;;;13.76;75.38;103205.03;5102568;28;20040;-74
2022/07/08 05:39:15;;;;;;;1.52;0.90;;;;;;;13.79;75.26;103205.00;5102916;28;20067;-74
2022/07/08 05:41:40;;;;;;;2.58;1.10;;;;;;;13.81;75.37;103200.56;5099928;28;20054;-74
2022/07/08 05:44:06;;;;;;;6.35;1.50;;;;;;;13.81;75.66;103203.22;5067645;28;20065;-74
2022/07/08 05:46:32;;;;;;;2.63;1.30;;;;;;;13.84;75.96;103200.50;5102600;28;20066;-74
2022/07/08 05:48:58;;;;;;;3.90;1.10;;;;;;;13.86;75.83;103204.00;5102617;28;20036;-74
2022/07/08 05:51:23;;;;;;;2.40;1.10;;;;;;;13.86;75.74;103205.75;5078226;28;20342;-74
2022/07/08 05:53:49;;;;;;;4.80;1.35;;;;;;;13.87;75.39;103200.47;5102399;28;20040;-74
2022/07/08 05:56:14;;;;;;;7.25;1.83;;;;;;;13.89;75.48;103201.31;5067536;28;20495;-74
2022/07/08 05:58:39;;;;;;;3.50;1.30;;;;;;;13.90;75.85;103207.44;5082681;28;20353;-74
2022/07/08 06:01:05;;;;;;;3.35;1.80;;;;;;;13.91;75.45;103204.78;5081642;28;20339;-74
2022/07/08 06:03:30;;;;;;;3.10;1.27;;;;;;;13.92;74.85;103203.88;5099362;28;20039;-74
2022/07/08 06:05:56;;;;;;;3.95;1.25;;;;;;;13.94;74.83;103211.78;5100626;28;20040;-74
2022/07/08 06:08:21;;;;;;;4.10;1.17;;;;;;;13.96;75.36;103213.47;5082379;28;20188;-74
2022/07/08 06:10:46;;;;;;;4.88;1.20;;;;;;;13.99;75.66;103218.69;5101345;28;20043;-74
2022/07/08 06:13:12;;;;;;;2.42;1.05;;;;;;;14.02;75.88;103226.56;5073575;28;20105;-74
2022/07/08 06:15:37;;;;;;;7.85;1.80;;;;;;;14.05;76.73;103222.13;5092029;28;20035;-74
2022/07/08 06:18:03;;;;;;;2.72;1.10;;;;;;;14.07;76.98;103223.81;5098707;28;20034;-74
2022/07/08 06:20:28;;;;;;;4.18;1.27;;;;;;;14.10;77.57;103228.16;5085378;28;20043;-73
2022/07/08 06:22:54;;;;;;;3.92;1.35;;;;;;;14.12;76.74;103227.25;5081802;28;20062;-74
2022/07/08 06:25:19;;;;;;;4.68;1.60;;;;;;;14.15;76.43;103226.31;5083732;28;20047;-74
2022/07/08 06:27:45;;;;;;;6.75;1.70;;;;;;;14.16;76.25;103228.94;5100174;28;20043;-73
2022/07/08 06:30:11;;;;;;;6.20;1.05;;;;;;;14.18;75.89;103227.13;5099673;28;20420;-74
2022/07/08 06:32:36;;;;;;;4.72;1.05;;;;;;;14.21;75.94;103218.31;5092882;28;20220;-74
2022/07/08 06:35:02;;;;;;;5.28;1.25;;;;;;;14.24;75.82;103230.56;5099847;28;20039;-74
2022/07/08 06:37:27;;;;;;;6.35;1.42;;;;;;;14.28;76.01;103226.97;5097766;28;20394;-74
2022/07/08 06:39:52;;;;;;;7.20;1.75;;;;;;;14.30;76.78;103236.59;5101571;28;20102;-74
2022/07/08 06:42:19;;;;;;;5.78;1.85;;;;;;;14.35;78.80;103233.88;5101417;28;20032;-74
2022/07/08 06:44:45;;;;;;;3.67;1.40;;;;;;;14.41;79.15;103233.78;5077363;28;20099;-74
2022/07/08 06:47:11;;;;;;;2.28;1.00;;;;;;;14.44;78.78;103231.06;5097463;28;20055;-74
2022/07/08 06:49:37;;;;;;;7.90;1.85;;;;;;;14.50;79.34;103233.59;5082779;28;20044;-74
2022/07/08 06:52:03;;;;;;;7.45;1.70;;;;;;;14.55;79.51;103237.03;5096004;28;20039;-74
2022/07/08 06:54:37;;;;;;;4.82;1.45;;;;;;;14.59;79.63;103238.72;5097564;28;20197;-74
2022/07/08 06:57:06;;;;;;;3.75;1.40;;;;;;;14.64;78.87;103240.41;5098067;28;20062;-74
2022/07/08 06:59:32;;;;;;;7.05;1.70;;;;;;;14.67;79.64;103235.94;5098703;28;20062;-74
2022/07/08 07:01:59;;;;;;;7.60;1.35;;;;;;;14.71;79.45;103236.75;5073955;28;20276;-73
2022/07/08 07:04:25;;;;;;;6.55;1.70;;;;;;;14.74;79.53;103231.41;5082934;28;20036;-74
2022/07/08 07:06:50;;;;;;;2.85;1.25;;;;;;;14.78;78.91;103239.22;5100111;28;20024;-74
2022/07/08 07:09:16;;;;;;;4.57;1.70;;;;;;;14.80;79.09;103225.13;5075942;28;20036;-74
2022/07/08 07:11:41;;;;;;;6.53;1.50;;;;;;;14.84;78.89;103238.22;5081823;28;20073;-74
2022/07/08 07:14:06;;;;;;;6.90;1.42;;;;;;;14.87;78.64;103232.88;5092696;28;20266;-74
2022/07/08 07:16:32;;;;;;;2.60;1.73;;;;;;;14.90;78.35;103237.25;5077480;28;20047;-74
2022/07/08 07:18:58;;;;;;;5.60;1.90;;;;;;;14.92;78.59;103232.81;5083018;28;20354;-74
2022/07/08 07:21:23;;;;;;;5.00;1.20;;;;;;;14.94;78.40;103231.00;5088866;28;20067;-74
2022/07/08 07:23:49;;;;;;;3.53;1.33;;;;;;;14.98;78.18;103236.16;5074177;28;20059;-74
2022/07/08 07:26:14;;;;;;;5.38;1.50;;;;;;;15.01;78.15;103229.97;5082653;28;20048;-74
2022/07/08 07:28:40;;;;;;;5.95;1.52;;;;;;;15.05;78.39;103229.00;5062678;28;20065;-74
2022/07/08 07:31:06;;;;;;;2.63;1.15;;;;;;;15.10;78.46;103239.47;5078550;28;20039;-74
2022/07/08 07:33:32;;;;;;;8.32;1.23;;;;;;;15.13;78.16;103232.34;5092930;28;20066;-74
2022/07/08 07:35:57;;;;;;;5.68;1.20;;;;;;;15.18;77.93;103231.38;5081615;28;20028;-74
2022/07/08 07:38:23;;;;;;;7.32;1.70;;;;;;;15.20;77.88;103238.34;5083725;28;20052;-74
2022/07/08 07:40:48;;;;;;;6.03;2.08;;;;;;;15.22;78.29;103233.91;5075788;28;20051;-74
2022/07/08 07:43:14;;;;;;;5.28;1.27;;;;;;;15.25;78.47;103230.34;5066833;28;20025;-74
2022/07/08 07:45:39;;;;;;;3.90;1.10;;;;;;;15.28;78.83;103231.13;5103745;28;20047;-74
2022/07/08 07:48:04;;;;;;;3.85;1.40;;;;;;;15.32;78.80;103234.56;5086187;28;20122;-74
2022/07/08 07:50:30;;;;;;;5.32;1.17;;;;;;;15.35;78.89;103231.84;5104927;28;20234;-74
2022/07/08 07:52:56;;;;;;;7.07;1.60;;;;;;;15.39;77.98;103230.91;5099333;28;20101;-74
2022/07/08 07:55:21;;;;;;;2.60;1.10;;;;;;;15.44;77.55;103228.13;5105181;28;20027;-74
2022/07/08 07:57:48;;;;;;;3.72;1.08;;;;;;;15.47;77.34;103225.44;5087178;28;20035;-74
2022/07/08 08:00:15;;;;;;;7.88;1.23;;;;;;;15.50;76.86;103228.88;5085898;28;20032;-74
2022/07/08 08:02:41;;;;;;;4.95;1.33;;;;;;;15.52;76.65;103218.28;5104366;28;20040;-74
2022/07/08 08:05:07;;;;;;;3.22;1.17;;;;;;;15.54;76.67;103225.25;5103563;28;20055;-74
2022/07/08 08:07:32;;;;;;;5.30;1.45;;;;;;;15.58;76.07;103214.63;5086799;28;20179;-74
2022/07/08 08:09:58;;;;;;;2.05;0.90;;;;;;;15.62;75.80;103226.84;5103144;28;20322;-74
2022/07/08 08:12:23;;;;;;;8.07;1.27;;;;;;;15.64;75.44;103223.25;5093405;28;20039;-74
2022/07/08 08:14:48;;;;;;;2.85;0.90;;;;;;;15.66;75.34;103223.22;5100826;28;20039;-74
2022/07/08 08:17:14;;;;;;;7.47;1.40;;;;;;;15.69;75.26;103225.78;5084352;28;20293;-74
2022/07/08 08:19:39;;;;;;;6.03;2.03;;;;;;;15.71;75.11;103224.81;5096449;28;20028;-74
2022/07/08 08:22:05;;;;;;;4.68;1.23;;;;;;;15.75;75.49;103223.00;5072735;28;20051;-74
2022/07/08 08:24:30;;;;;;;3.58;1.20;;;;;;;15.79;75.74;103219.41;5102216;28;20376;-74
2022/07/08 08:26:55;;;;;;;2.55;1.17;;;;;;;15.83;75.87;103215.78;5098395;28;20027;-74
2022/07/08 08:29:21;;;;;;;2.40;0.80;;;;;;;15.89;75.81;103217.41;5100101;28;20032;-74
2022/07/08 08:31:46;;;;;;;1.98;0.95;;;;;;;15.93;75.49;103216.41;5075447;28;20099;-74
2022/07/08 08:34:11;;;;;;;4.30;1.35;;;;;;;15.97;75.34;103211.91;5067095;28;20051;-75
2022/07/08 08:36:37;;;;;;;2.10;1.20;;;;;;;16.00;75.78;103206.56;5075214;28;20049;-74
2022/07/08 08:39:02;;;;;;;2.50;1.15;;;;;;;16.02;75.32;103213.53;5062752;28;20164;-74
2022/07/08 08:41:29;;;;;;;5.43;1.33;;;;;;;16.08;76.46;103226.59;5081297;28;20040;-74
2022/07/08 08:43:54;;;;;;;6.10;1.50;;;;;;;16.12;76.32;103222.09;5097286;28;20040;-74
2022/07/08 08:46:23;;;;;;;4.78;1.08;;;;;;;16.19;76.08;103230.72;5098830;28;20232;-74
2022/07/08 08:48:55;;;;;;;4.07;0.90;;;;;;;16.23;75.64;103222.69;5069401;28;20040;-74
2022/07/08 08:51:22;;;;;;;5.05;1.60;;;;;;;16.26;75.97;103219.97;5096605;28;20325;-74
2022/07/08 08:53:47;;;;;;;3.80;1.00;;;;;;;16.32;75.52;103213.63;5081260;28;20035;-74
2022/07/08 08:56:15;;;;;;;3.53;0.98;;;;;;;16.35;75.18;103220.59;5098554;28;20039;-74
2022/07/08 08:58:46;;;;;;;1.55;0.82;;;;;;;16.40;75.58;103216.06;5075836;28;20028;-74
2022/07/08 09:01:12;;;;;;;6.47;1.20;;;;;;;16.44;75.62;103221.22;5065196;28;20047;-74
2022/07/08 09:03:37;;;;;;;4.30;1.35;;;;;;;16.49;75.43;103229.03;5092785;28;20356;-74
2022/07/08 09:06:04;;;;;;;4.55;1.33;;;;;;;16.54;75.19;103226.28;5082863;28;20052;-74
2022/07/08 09:08:31;;;;;;;6.38;1.67;;;;;;;16.56;74.79;103230.59;5099808;28;20040;-74
2022/07/08 09:10:56;;;;;;;4.38;1.20;;;;;;;16.58;74.60;103227.91;5076974;28;20055;-74
2022/07/08 09:13:25;;;;;;;5.07;1.25;;;;;;;16.61;74.57;103226.06;5093260;28;20063;-74
2022/07/08 09:15:57;;;;;;;6.03;1.25;;;;;;;16.63;74.35;103224.22;5075320;28;20442;-74
2022/07/08 09:18:30;;;;;;;3.08;1.20;;;;;;;16.68;74.27;103226.72;5104061;28;20038;-74
2022/07/08 09:20:57;;;;;;;4.70;1.00;;;;;;;16.70;73.67;103225.78;5099125;28;20035;-74
2022/07/08 09:23:31;;;;;;;1.83;0.70;;;;;;;16.75;73.39;103227.41;5099242;28;20070;-74
2022/07/08 09:26:04;;;;;;;1.63;0.90;;;;;;;16.77;72.37;103221.19;5089910;28;20056;-74
2022/07/08 09:28:43;;;;;;;2.70;0.88;;;;;;;16.83;72.76;103228.13;5095348;28;20327;-74
2022/07/08 09:31:14;;;;;;;4.57;1.40;;;;;;;16.85;71.97;103223.66;5091177;28;20472;-74
2022/07/08 09:33:40;;;;;;;1.98;0.63;;;;;;;16.88;72.37;103218.25;5092837;28;20039;-75
2022/07/08 09:36:08;;;;;;;5.68;1.10;;;;;;;16.92;72.26;103225.19;5100815;28;20033;-74
2022/07/08 09:38:37;;;;;;;3.50;1.00;;;;;;;16.98;71.59;103232.09;5081791;28;20042;-74
2022/07/08 09:41:05;;;;;;;6.80;1.00;;;;;;;17.04;72.07;103230.09;5096980;28;20051;-74
2022/07/08 09:43:42;;;;;;;5.07;1.20;;;;;;;17.10;71.46;103225.53;5071887;28;20024;-74
2022/07/08 09:46:07;;;;;;;1.98;1.10;;;;;;;17.13;72.18;103228.09;5087184;28;20036;-74
2022/07/08 09:48:33;;;;;;;4.68;1.20;;;;;;;17.18;72.19;103228.84;5093126;28;20039;-74
2022/07/08 09:51:00;;;;;;;3.00;1.02;;;;;;;17.22;72.30;103222.53;5095852;28;20091;-74
2022/07/08 09:53:28;;;;;;;1.90;0.90;;;;;;;17.26;71.55;103230.34;5081143;28;20023;-75
2022/07/08 09:55:55;;;;;;;3.40;0.90;;;;;;;17.31;71.69;103227.53;5098418;28;20021;-74
2022/07/08 09:58:26;;;;;;;8.73;1.38;;;;;;;17.33;70.99;103223.03;5093202;28;20428;-74
2022/07/08 10:00:53;;;;;;;1.85;0.93;;;;;;;17.38;71.70;103221.13;5082002;28;20099;-74
2022/07/08 10:03:20;;;;;;;3.47;1.10;;;;;;;17.47;71.92;103227.91;5072692;28;20410;-74
2022/07/08 10:05:46;;;;;;;3.65;1.10;;;;;;;17.52;70.79;103222.47;5079608;28;20055;-74
2022/07/08 10:08:12;;;;;;;3.70;1.00;;;;;;;17.59;71.04;103221.34;5091997;28;20036;-75
2022/07/08 10:10:39;;;;;;;2.35;0.82;;;;;;;17.62;70.31;103221.25;5097505;28;20054;-74
2022/07/08 10:13:05;;;;;;;2.65;1.10;;;;;;;17.65;70.24;103224.66;5066951;28;20044;-74
2022/07/08 10:15:32;;;;;;;2.58;0.90;;;;;;;17.70;69.73;103221.88;5064552;28;20363;-74
2022/07/08 10:18:05;;;;;;;0.80;0.50;;;;;;;17.77;69.50;103231.38;5079012;28;20063;-74
2022/07/08 10:20:33;;;;;;;3.28;1.00;;;;;;;17.82;69.63;103228.53;5075225;28;20253;-74
2022/07/08 10:23:04;;;;;;;4.28;1.00;;;;;;;17.85;69.24;103236.44;5073733;28;20024;-74
2022/07/08 10:25:29;;;;;;;1.88;1.10;;;;;;;17.89;68.58;103242.50;5079102;28;20028;-74
2022/07/08 10:28:09;;;;;;;2.50;0.85;;;;;;;17.91;67.85;103238.88;5077166;28;20093;-75
2022/07/08 10:30:51;;;;;;;2.72;1.05;;;;;;;17.94;65.81;103235.28;5080810;28;20038;-75
2022/07/08 10:33:25;;;;;;;2.95;0.80;;;;;;;17.98;66.35;103235.09;5080435;28;20060;-74
2022/07/08 10:36:09;;;;;;;1.98;0.90;;;;;;;18.03;67.80;103230.50;5037742;28;20025;-74
2022/07/08 10:38:37;;;;;;;2.28;0.73;;;;;;;18.06;68.06;103233.97;5081285;28;20352;-74
2022/07/08 10:41:04;;;;;;;1.63;0.70;;;;;;;18.09;69.02;103224.13;5059957;28;20354;-74
2022/07/08 10:43:31;;;;;;;1.67;0.63;;;;;;;18.12;69.09;103229.34;5076460;28;20035;-74
2022/07/08 10:46:06;;;;;;;2.63;1.00;;;;;;;18.12;67.97;103224.03;5061926;28;20037;-74
2022/07/08 10:48:41;;;;;;;1.95;0.77;;;;;;;18.15;68.10;103229.19;5073579;28;20043;-74
2022/07/08 10:51:26;;;;;;;3.72;1.00;;;;;;;18.16;68.85;103223.00;5069945;28;20025;-74
2022/07/08 10:53:58;;;;;;;2.13;0.90;;;;;;;18.19;69.39;103222.91;5069753;28;20039;-75
2022/07/08 10:56:49;;;;;;;3.30;1.10;;;;;;;18.23;67.77;103221.84;5085121;28;20087;-75
2022/07/08 10:59:18;;;;;;;1.67;0.90;;;;;;;18.28;68.61;103227.03;5076809;28;20051;-75
2022/07/08 11:01:59;;;;;;;2.40;0.80;;;;;;;18.33;67.96;103218.88;5035511;28;20097;-75
2022/07/08 11:04:31;;;;;;;1.88;0.82;;;;;;;18.37;67.66;103225.78;5063988;28;20043;-75
2022/07/08 11:07:29;;;;;;;1.60;0.80;;;;;;;18.40;65.05;103218.59;5080107;28;20232;-74
2022/07/08 11:10:08;;;;;;;2.58;1.15;;;;;;;18.45;67.12;103218.44;5078923;28;20032;-74
2022/07/08 11:12:43;;;;;;;1.48;0.70;;;;;;;18.45;66.88;103218.44;5078594;28;20037;-75
2022/07/08 11:15:16;;;;;;;2.35;0.90;;;;;;;18.47;67.67;103224.56;5080554;28;20033;-75
2022/07/08 11:17:43;;;;;;;0.63;0.60;;;;;;;18.50;67.66;103220.91;5078673;28;20335;-75
2022/07/08 11:20:11;;;;;;;1.70;0.73;;;;;;;18.52;65.88;103214.66;5074531;28;20050;-75
2022/07/08 11:22:38;;;;;;;1.90;0.80;;;;;;;18.55;63.46;103219.81;5053158;28;20044;-75
2022/07/08 11:25:05;;;;;;;1.33;0.60;;;;;;;18.61;66.12;103226.72;5081755;28;20032;-75